createdAt,value
2022-11-24T00:07:49.988Z,6.59
2022-11-24T00:27:49.957Z,6.68
2022-11-24T00:47:49.948Z,6.75
2022-11-24T01:07:49.946Z,6.82
2022-11-24T01:27:49.914Z,6.81
2022-11-24T01:47:49.921Z,6.77
2022-11-24T02:07:49.895Z,6.85
2022-11-24T02:27:49.865Z,6.78
2022-11-24T02:47:49.863Z,6.76
2022-11-24T03:07:49.835Z,6.70
2022-11-24T03:27:49.850Z,6.66
2022-11-24T03:47:49.816Z,6.71
2022-11-24T04:07:49.793Z,6.77
2022-11-24T04:27:49.778Z,6.87
2022-11-24T04:47:49.804Z,6.88
2022-11-24T05:07:49.766Z,6.87
2022-11-24T05:27:49.736Z,6.95
2022-11-24T05:47:49.728Z,7.00
2022-11-24T06:07:49.709Z,6.97
2022-11-24T06:27:49.701Z,7.01
2022-11-24T06:47:49.674Z,7.04
2022-11-24T07:07:49.654Z,7.07
2022-11-24T07:27:49.657Z,7.14
2022-11-24T07:47:49.631Z,7.26
2022-11-24T08:07:49.631Z,7.48
2022-11-24T08:27:49.598Z,7.74
2022-11-24T08:47:49.594Z,7.96
2022-11-24T09:07:49.564Z,7.94
2022-11-24T09:27:49.559Z,8.16
2022-11-24T09:47:49.536Z,8.42
2022-11-24T10:07:49.518Z,8.51
2022-11-24T10:27:49.538Z,8.53
2022-11-24T10:47:49.500Z,8.10
2022-11-24T11:07:49.478Z,7.99
2022-11-24T11:27:49.520Z,8.07
2022-11-24T11:47:49.441Z,8.19
2022-11-24T12:07:49.456Z,8.22
2022-11-24T12:27:49.504Z,8.34
2022-11-24T12:47:49.450Z,8.40
2022-11-24T13:07:49.547Z,8.35
2022-11-24T13:27:49.476Z,8.35
2022-11-24T13:47:49.472Z,8.43
2022-11-24T14:07:49.395Z,8.31
2022-11-24T14:27:49.460Z,8.18
2022-11-24T14:47:49.446Z,8.07
2022-11-24T15:07:49.348Z,7.95
2022-11-24T15:27:49.394Z,7.71
2022-11-24T15:47:49.439Z,7.42
2022-11-24T16:07:49.223Z,7.30
2022-11-24T16:27:49.290Z,7.37
2022-11-24T16:47:49.290Z,7.22
2022-11-24T17:07:49.327Z,7.11
2022-11-24T17:27:49.139Z,7.05
2022-11-24T17:47:49.145Z,6.83
2022-11-24T18:07:49.379Z,6.80
2022-11-24T18:27:49.255Z,6.79
2022-11-24T18:47:49.113Z,6.66
2022-11-24T19:07:49.255Z,6.51
2022-11-24T19:27:49.069Z,6.59
2022-11-24T19:47:49.112Z,6.58
2022-11-24T20:07:49.038Z,6.51
2022-11-24T20:27:49.048Z,6.28
2022-11-24T20:47:49.146Z,6.08
2022-11-24T21:07:48.981Z,5.98
2022-11-24T21:27:48.989Z,5.91
2022-11-24T21:47:48.962Z,5.70
2022-11-24T22:07:48.938Z,5.53
2022-11-24T22:27:48.945Z,5.22
2022-11-24T22:47:48.959Z,5.20
2022-11-24T23:07:48.939Z,5.03
2022-11-24T23:27:48.901Z,4.87
2022-11-24T23:47:48.883Z,4.70
